createdAt,value
2023-02-13T00:02:11.591Z,0.56
2023-02-13T00:05:14.172Z,0.59
2023-02-13T00:08:16.524Z,0.61
2023-02-13T00:11:20.554Z,0.52
2023-02-13T00:14:22.671Z,0.39
2023-02-13T00:17:26.528Z,0.42
2023-02-13T00:20:28.752Z,0.40
2023-02-13T00:23:33.168Z,0.39
2023-02-13T00:26:35.348Z,0.38
2023-02-13T00:29:38.880Z,0.21
2023-02-13T00:32:41.019Z,0.16
2023-02-13T00:35:43.472Z,0.25
2023-02-13T00:38:46.808Z,0.26
2023-02-13T00:41:49.300Z,0.27
2023-02-13T00:44:51.550Z,0.30
2023-02-13T00:47:54.124Z,0.29
2023-02-13T00:50:56.622Z,0.30
2023-02-13T00:53:59.379Z,0.11
2023-02-13T00:57:03.201Z,0.16
2023-02-13T01:00:06.576Z,-0.01
2023-02-13T01:03:09.603Z,0.05
2023-02-13T01:06:12.745Z,0.05
2023-02-13T01:09:15.045Z,0.05
2023-02-13T01:12:17.548Z,0.08
2023-02-13T01:15:20.490Z,0.06
2023-02-13T01:18:24.213Z,0.05
2023-02-13T01:21:26.666Z,0.05
2023-02-13T01:24:31.130Z,-0.09
2023-02-13T01:27:33.996Z,-0.04
2023-02-13T01:30:36.990Z,0.01
2023-02-13T01:33:39.447Z,-0.09
2023-02-13T01:36:43.040Z,-0.11
2023-02-13T01:39:45.285Z,-0.21
2023-02-13T01:42:48.103Z,-0.23
2023-02-13T01:45:55.771Z,-0.14
2023-02-13T01:49:05.345Z,-0.20
2023-02-13T01:52:10.125Z,-0.40
2023-02-13T01:55:14.248Z,-0.51
2023-02-13T01:58:22.944Z,-0.53
2023-02-13T02:01:27.108Z,-0.35
2023-02-13T02:04:33.887Z,-0.32
2023-02-13T02:07:39.595Z,-0.36
2023-02-13T02:10:42.953Z,-0.27
2023-02-13T02:13:46.320Z,-0.31
2023-02-13T02:16:48.947Z,-0.31
2023-02-13T02:20:35.014Z,-0.37
2023-02-13T02:23:49.848Z,-0.49
2023-02-13T02:27:25.817Z,-0.49
2023-02-13T02:30:31.382Z,-0.43
2023-02-13T02:33:59.635Z,-0.51
2023-02-13T02:37:13.465Z,-0.48
2023-02-13T02:40:21.759Z,-0.54
2023-02-13T02:43:43.095Z,-0.57
2023-02-13T02:47:13.574Z,-0.56
2023-02-13T02:50:41.743Z,-0.63
2023-02-13T02:53:53.029Z,-0.61
2023-02-13T02:57:01.189Z,-0.69
2023-02-13T03:00:42.322Z,-0.75
2023-02-13T03:04:05.484Z,-0.82
2023-02-13T03:07:11.606Z,-0.86
2023-02-13T03:10:40.798Z,-0.85
2023-02-13T03:13:47.820Z,-0.90
2023-02-13T03:17:09.368Z,-0.84
2023-02-13T03:20:30.231Z,-0.90
2023-02-13T03:23:44.644Z,-0.88
2023-02-13T03:27:14.234Z,-0.94
2023-02-13T03:30:32.965Z,-1.02
2023-02-13T03:34:06.572Z,-0.88
2023-02-13T03:37:30.241Z,-0.94
2023-02-13T03:41:19.296Z,-0.92
2023-02-13T03:44:42.352Z,-1.03
2023-02-13T03:47:45.358Z,-1.05
2023-02-13T03:50:48.276Z,-1.07
2023-02-13T03:53:56.032Z,-1.07
2023-02-13T03:57:17.404Z,-1.08
2023-02-13T04:00:21.546Z,-1.32
2023-02-13T04:03:35.797Z,-1.25
2023-02-13T04:07:12.138Z,-1.24
2023-02-13T04:10:17.462Z,-1.21
2023-02-13T04:13:38.868Z,-1.25
2023-02-13T04:16:45.682Z,-1.29
2023-02-13T04:19:48.025Z,-1.35
2023-02-13T04:22:50.538Z,-1.41
2023-02-13T04:25:55.598Z,-1.42
2023-02-13T04:28:58.074Z,-1.39
2023-02-13T04:32:01.658Z,-1.38
2023-02-13T04:35:04.456Z,-1.36
2023-02-13T04:38:06.640Z,-1.39
2023-02-13T04:41:09.089Z,-1.47
2023-02-13T04:44:11.302Z,-1.57
2023-02-13T04:47:13.739Z,-1.70
2023-02-13T04:50:15.988Z,-1.71
2023-02-13T04:53:18.443Z,-1.80
2023-02-13T04:56:20.569Z,-1.75
2023-02-13T04:59:22.972Z,-1.77
2023-02-13T05:02:25.386Z,-1.77
2023-02-13T05:05:28.498Z,-1.78
2023-02-13T05:08:30.697Z,-1.80
2023-02-13T05:11:33.167Z,-1.75
2023-02-13T05:14:35.349Z,-1.81
2023-02-13T05:17:37.847Z,-1.89
2023-02-13T05:20:40.065Z,-1.76
2023-02-13T05:23:43.909Z,-1.71
2023-02-13T05:26:46.061Z,-1.66
2023-02-13T05:29:48.510Z,-1.72
2023-02-13T05:32:54.956Z,-1.70
2023-02-13T05:35:57.404Z,-1.88
2023-02-13T05:39:00.736Z,-1.88
2023-02-13T05:42:04.855Z,-1.85
2023-02-13T05:45:07.901Z,-1.79
2023-02-13T05:48:10.414Z,-1.93
2023-02-13T05:51:12.663Z,-2.03
2023-02-13T05:54:15.350Z,-2.12
2023-02-13T05:57:17.564Z,-2.05
2023-02-13T06:00:20.911Z,-2.03
2023-02-13T06:03:25.213Z,-1.99
2023-02-13T06:06:28.210Z,-2.04
2023-02-13T06:09:30.650Z,-2.01
2023-02-13T06:12:33.069Z,-2.00
2023-02-13T06:15:35.512Z,-1.96
2023-02-13T06:18:39.092Z,-1.91
2023-02-13T06:21:41.963Z,-1.94
2023-02-13T06:24:44.202Z,-2.10
2023-02-13T06:27:46.829Z,-2.01
2023-02-13T06:30:49.278Z,-1.94
2023-02-13T06:33:52.180Z,-2.04
2023-02-13T06:36:54.346Z,-2.04
2023-02-13T06:39:56.821Z,-2.01
2023-02-13T06:42:59.041Z,-1.99
2023-02-13T06:46:06.162Z,-1.99
2023-02-13T06:49:09.630Z,-2.06
2023-02-13T06:52:12.336Z,-2.05
2023-02-13T06:55:15.266Z,-1.99
2023-02-13T06:58:18.451Z,-2.16
2023-02-13T07:01:20.760Z,-2.07
2023-02-13T07:04:23.536Z,-2.23
2023-02-13T07:07:25.904Z,-2.06
2023-02-13T07:10:28.517Z,-1.98
2023-02-13T07:13:30.697Z,-1.94
2023-02-13T07:16:34.707Z,-1.84
2023-02-13T07:19:37.037Z,-1.77
2023-02-13T07:22:45.597Z,-1.68
2023-02-13T07:25:47.936Z,-1.60
2023-02-13T07:28:56.971Z,-1.54
2023-02-13T07:32:09.199Z,-1.51
2023-02-13T07:35:11.737Z,-1.36
2023-02-13T07:38:14.110Z,-1.32
2023-02-13T07:41:16.542Z,-1.22
2023-02-13T07:44:18.661Z,-1.18
2023-02-13T07:47:21.140Z,-1.11
2023-02-13T07:50:24.137Z,-1.00
2023-02-13T07:53:26.752Z,-0.89
2023-02-13T07:56:28.910Z,-0.84
2023-02-13T07:59:31.404Z,-0.72
2023-02-13T08:02:33.660Z,-0.70
2023-02-13T08:05:41.375Z,-0.58
2023-02-13T08:08:43.617Z,-0.46
2023-02-13T08:12:09.512Z,-0.39
2023-02-13T08:15:13.294Z,-0.21
2023-02-13T08:18:17.022Z,-0.11
2023-02-13T08:21:20.845Z,0.04
2023-02-13T08:24:25.704Z,0.15
2023-02-13T08:27:30.240Z,0.22
2023-02-13T08:30:33.535Z,0.35
2023-02-13T08:33:35.850Z,0.45
2023-02-13T08:36:38.676Z,0.58
2023-02-13T08:39:41.112Z,0.68
2023-02-13T08:42:43.679Z,0.86
2023-02-13T08:45:46.038Z,0.98
2023-02-13T08:48:48.789Z,1.16
2023-02-13T08:51:51.036Z,1.29
2023-02-13T08:54:53.545Z,1.57
2023-02-13T08:57:55.736Z,1.90
2023-02-13T09:00:58.806Z,2.21
2023-02-13T09:04:01.059Z,2.56
2023-02-13T09:07:03.702Z,2.98
2023-02-13T09:10:06.614Z,3.40
2023-02-13T09:13:09.649Z,3.83
2023-02-13T09:16:12.112Z,4.17
2023-02-13T09:19:14.778Z,4.69
2023-02-13T09:22:17.319Z,5.01
2023-02-13T09:25:21.645Z,5.03
2023-02-13T09:28:23.902Z,5.32
2023-02-13T09:31:29.173Z,5.51
2023-02-13T09:34:31.905Z,5.46
2023-02-13T09:37:34.428Z,5.55
2023-02-13T09:40:51.478Z,5.60
2023-02-13T09:43:59.620Z,5.54
2023-02-13T09:47:14.921Z,5.52
2023-02-13T09:50:24.498Z,5.54
2023-02-13T09:53:29.649Z,5.61
2023-02-13T09:56:52.684Z,5.64
2023-02-13T10:00:13.170Z,5.74
2023-02-13T10:03:28.705Z,5.79
2023-02-13T10:06:49.974Z,5.53
2023-02-13T10:09:59.040Z,5.59
2023-02-13T10:13:23.625Z,5.68
2023-02-13T10:16:35.888Z,5.71
2023-02-13T10:20:01.596Z,5.80
2023-02-13T10:23:27.043Z,5.94
2023-02-13T10:26:43.656Z,5.92
2023-02-13T10:30:12.759Z,6.05
2023-02-13T10:33:36.728Z,6.07
2023-02-13T10:36:44.500Z,6.14
2023-02-13T10:39:53.249Z,6.26
2023-02-13T10:43:08.200Z,6.51
2023-02-13T10:46:22.346Z,6.59
2023-02-13T10:49:37.970Z,6.63
2023-02-13T10:52:50.812Z,6.62
2023-02-13T10:56:01.976Z,6.76
2023-02-13T10:59:16.263Z,6.75
2023-02-13T11:02:23.318Z,6.90
2023-02-13T11:05:52.455Z,6.86
2023-02-13T11:08:57.023Z,7.04
2023-02-13T11:11:59.669Z,7.24
2023-02-13T11:15:06.603Z,7.15
2023-02-13T11:18:19.674Z,7.30
2023-02-13T11:21:37.232Z,7.42
2023-02-13T11:24:55.732Z,7.47
2023-02-13T11:28:17.911Z,7.32
2023-02-13T11:31:34.986Z,7.52
2023-02-13T11:34:37.974Z,7.69
2023-02-13T11:37:40.599Z,7.81
2023-02-13T11:40:47.365Z,7.98
2023-02-13T11:44:01.657Z,7.79
2023-02-13T11:47:04.386Z,7.92
2023-02-13T11:50:46.225Z,8.07
2023-02-13T11:53:49.171Z,8.11
2023-02-13T11:57:04.867Z,8.11
2023-02-13T12:00:29.661Z,8.29
2023-02-13T12:03:33.380Z,8.46
2023-02-13T12:06:39.851Z,8.38
2023-02-13T12:09:45.456Z,8.44
2023-02-13T12:12:55.770Z,8.61
2023-02-13T12:16:03.616Z,8.72
2023-02-13T12:19:12.206Z,8.71
2023-02-13T12:22:28.616Z,8.88
2023-02-13T12:25:48.479Z,8.92
2023-02-13T12:29:00.641Z,8.86
2023-02-13T12:32:21.384Z,8.93
2023-02-13T12:35:48.971Z,9.03
2023-02-13T12:39:01.780Z,9.12
2023-02-13T12:42:19.659Z,9.04
2023-02-13T12:45:40.804Z,8.84
2023-02-13T12:49:03.556Z,8.79
2023-02-13T12:52:09.044Z,8.84
2023-02-13T12:55:26.890Z,9.13
2023-02-13T12:58:57.573Z,9.17
2023-02-13T13:02:18.577Z,9.45
2023-02-13T13:05:31.384Z,9.56
2023-02-13T13:09:00.044Z,9.62
2023-02-13T13:12:11.167Z,9.74
2023-02-13T13:15:16.478Z,9.67
2023-02-13T13:18:37.077Z,9.72
2023-02-13T13:22:00.129Z,9.96
2023-02-13T13:25:43.076Z,10.15
2023-02-13T13:28:49.502Z,10.22
2023-02-13T13:31:59.860Z,10.21
2023-02-13T13:35:03.594Z,10.25
2023-02-13T13:38:17.386Z,10.14
2023-02-13T13:41:39.872Z,10.09
2023-02-13T13:44:48.157Z,9.96
2023-02-13T13:48:09.614Z,10.19
2023-02-13T13:51:17.035Z,10.45
2023-02-13T13:54:24.394Z,9.96
2023-02-13T13:57:46.775Z,9.97
2023-02-13T14:01:29.728Z,9.88
2023-02-13T14:04:33.110Z,9.70
2023-02-13T14:07:41.528Z,9.74
2023-02-13T14:10:50.400Z,9.81
2023-02-13T14:13:52.785Z,9.80
2023-02-13T14:16:58.143Z,9.55
2023-02-13T14:20:00.990Z,9.62
2023-02-13T14:23:26.528Z,9.63
2023-02-13T14:26:33.405Z,9.60
2023-02-13T14:29:36.357Z,9.69
2023-02-13T14:32:41.224Z,9.58
2023-02-13T14:35:44.114Z,9.53
2023-02-13T14:38:56.317Z,9.51
2023-02-13T14:42:01.454Z,9.33
2023-02-13T14:45:11.115Z,9.25
2023-02-13T14:48:15.361Z,9.27
2023-02-13T14:51:28.746Z,9.13
2023-02-13T14:54:49.355Z,9.07
2023-02-13T14:58:10.829Z,8.90
2023-02-13T15:01:31.871Z,8.89
2023-02-13T15:04:46.826Z,8.55
2023-02-13T15:08:16.264Z,8.31
2023-02-13T15:11:37.736Z,8.13
2023-02-13T15:14:40.738Z,8.06
2023-02-13T15:17:43.116Z,7.83
2023-02-13T15:20:47.108Z,7.70
2023-02-13T15:23:52.611Z,7.65
2023-02-13T15:27:03.994Z,7.55
2023-02-13T15:30:15.064Z,7.46
2023-02-13T15:33:19.236Z,7.39
2023-02-13T15:36:25.493Z,7.26
2023-02-13T15:39:31.864Z,7.31
2023-02-13T15:42:34.802Z,7.19
2023-02-13T15:45:37.233Z,7.24
2023-02-13T15:48:39.408Z,7.22
2023-02-13T15:51:42.278Z,7.18
2023-02-13T15:54:53.053Z,7.14
2023-02-13T15:57:57.499Z,7.12
2023-02-13T16:01:09.336Z,7.12
2023-02-13T16:04:15.320Z,7.05
2023-02-13T16:07:17.641Z,7.00
2023-02-13T16:10:29.556Z,6.98
2023-02-13T16:13:31.849Z,7.00
2023-02-13T16:16:49.477Z,7.04
2023-02-13T16:19:54.093Z,7.02
2023-02-13T16:22:59.151Z,7.10
2023-02-13T16:26:06.150Z,7.05
2023-02-13T16:29:11.460Z,7.05
2023-02-13T16:32:22.186Z,6.99
2023-02-13T16:35:29.056Z,7.09
2023-02-13T16:38:43.502Z,6.96
2023-02-13T16:41:45.985Z,6.90
2023-02-13T16:44:48.238Z,6.83
2023-02-13T16:48:02.451Z,6.74
2023-02-13T16:51:05.066Z,6.64
2023-02-13T16:54:10.564Z,6.65
2023-02-13T16:57:17.493Z,6.70
2023-02-13T17:00:24.430Z,6.60
2023-02-13T17:03:26.648Z,6.51
2023-02-13T17:06:29.053Z,6.45
2023-02-13T17:09:31.297Z,6.40
2023-02-13T17:12:38.629Z,6.37
2023-02-13T17:15:45.881Z,6.42
2023-02-13T17:18:48.354Z,6.53
2023-02-13T17:21:55.653Z,6.42
2023-02-13T17:24:59.226Z,6.47
2023-02-13T17:28:24.134Z,6.59
2023-02-13T17:31:26.625Z,6.55
2023-02-13T17:34:28.897Z,6.46
2023-02-13T17:37:32.816Z,6.22
2023-02-13T17:40:35.324Z,6.28
2023-02-13T17:43:37.927Z,6.21
2023-02-13T17:46:40.553Z,6.17
2023-02-13T17:49:43.098Z,6.19
2023-02-13T17:52:47.568Z,6.24
2023-02-13T17:55:50.805Z,6.18
2023-02-13T17:58:52.944Z,6.07
2023-02-13T18:01:55.448Z,5.96
2023-02-13T18:04:57.889Z,5.83
2023-02-13T18:08:02.616Z,5.76
2023-02-13T18:11:10.826Z,5.65
2023-02-13T18:14:12.977Z,5.70
2023-02-13T18:17:16.012Z,5.65
2023-02-13T18:20:23.585Z,5.49
2023-02-13T18:23:26.148Z,5.43
2023-02-13T18:26:28.312Z,5.32
2023-02-13T18:29:30.813Z,5.42
2023-02-13T18:32:32.938Z,5.35
2023-02-13T18:35:37.292Z,5.43
2023-02-13T18:38:39.394Z,5.53
2023-02-13T18:41:42.142Z,5.54
2023-02-13T18:44:44.280Z,5.53
2023-02-13T18:47:46.716Z,5.67
2023-02-13T18:50:49.267Z,5.54
2023-02-13T18:53:51.969Z,5.48
2023-02-13T18:56:54.265Z,5.51
2023-02-13T18:59:56.749Z,5.51
2023-02-13T19:02:59.663Z,5.58
2023-02-13T19:06:08.305Z,5.52
2023-02-13T19:09:10.834Z,5.56
2023-02-13T19:12:13.370Z,5.48
2023-02-13T19:15:16.463Z,5.44
2023-02-13T19:18:18.884Z,5.48
2023-02-13T19:21:23.324Z,5.47
2023-02-13T19:24:25.750Z,5.46
2023-02-13T19:27:27.918Z,5.41
2023-02-13T19:30:30.353Z,5.38
2023-02-13T19:33:32.790Z,5.42
2023-02-13T19:36:35.236Z,5.51
2023-02-13T19:39:37.497Z,5.37
2023-02-13T19:42:40.336Z,5.34
2023-02-13T19:45:43.634Z,5.40
2023-02-13T19:48:49.254Z,5.46
2023-02-13T19:51:51.489Z,5.52
2023-02-13T19:54:54.213Z,5.59
2023-02-13T19:57:56.362Z,5.52
2023-02-13T20:01:14.843Z,5.45
2023-02-13T20:04:17.358Z,5.49
2023-02-13T20:07:19.560Z,5.40
2023-02-13T20:10:22.006Z,5.51
2023-02-13T20:13:24.782Z,5.58
2023-02-13T20:16:27.909Z,5.71
2023-02-13T20:19:30.704Z,5.72
2023-02-13T20:22:33.141Z,5.69
2023-02-13T20:25:35.553Z,5.59
2023-02-13T20:28:38.244Z,5.60
2023-02-13T20:31:41.507Z,5.67
2023-02-13T20:34:58.707Z,5.67
2023-02-13T20:38:01.983Z,5.76
2023-02-13T20:41:12.262Z,5.76
2023-02-13T20:44:16.127Z,5.77
2023-02-13T20:47:18.745Z,5.80
2023-02-13T20:50:21.171Z,5.75
2023-02-13T20:53:23.558Z,5.76
2023-02-13T20:56:28.100Z,5.76
2023-02-13T20:59:30.658Z,5.83
2023-02-13T21:02:32.854Z,5.97
2023-02-13T21:05:35.370Z,6.02
2023-02-13T21:08:38.100Z,6.00
2023-02-13T21:11:43.077Z,6.11
2023-02-13T21:14:45.251Z,6.07
2023-02-13T21:17:47.704Z,5.96
2023-02-13T21:20:49.904Z,5.94
2023-02-13T21:23:54.221Z,5.85
2023-02-13T21:26:56.400Z,5.77
2023-02-13T21:29:58.911Z,5.64
2023-02-13T21:33:01.090Z,5.60
2023-02-13T21:36:06.685Z,5.65
2023-02-13T21:39:10.488Z,5.77
2023-02-13T21:42:12.969Z,5.81
2023-02-13T21:45:15.289Z,5.82
2023-02-13T21:48:17.706Z,5.84
2023-02-13T21:51:20.539Z,5.80
2023-02-13T21:54:22.993Z,5.71
2023-02-13T21:57:25.175Z,5.66
2023-02-13T22:00:27.601Z,5.66
2023-02-13T22:03:30.327Z,5.66
2023-02-13T22:06:35.417Z,5.56
2023-02-13T22:09:38.056Z,5.61
2023-02-13T22:12:40.221Z,5.48
2023-02-13T22:15:42.681Z,5.40
2023-02-13T22:18:45.523Z,5.32
2023-02-13T22:21:48.038Z,5.30
2023-02-13T22:24:50.261Z,5.28
2023-02-13T22:27:52.659Z,5.26
2023-02-13T22:30:55.164Z,5.26
2023-02-13T22:34:03.813Z,5.28
2023-02-13T22:37:08.396Z,5.30
2023-02-13T22:40:11.246Z,5.23
2023-02-13T22:43:13.370Z,5.28
2023-02-13T22:46:22.749Z,5.05
2023-02-13T22:49:25.005Z,4.88
2023-02-13T22:52:27.406Z,4.74
2023-02-13T22:55:29.532Z,4.63
2023-02-13T22:58:32.137Z,4.33
2023-02-13T23:01:34.363Z,4.07
2023-02-13T23:04:36.828Z,4.07
2023-02-13T23:07:39.118Z,3.92
2023-02-13T23:11:04.879Z,3.86
2023-02-13T23:14:07.247Z,3.77
2023-02-13T23:17:28.403Z,3.42
2023-02-13T23:20:30.576Z,3.42
2023-02-13T23:23:36.015Z,3.39
2023-02-13T23:26:38.583Z,3.28
2023-02-13T23:29:41.076Z,3.15
2023-02-13T23:32:43.243Z,3.22
2023-02-13T23:35:45.633Z,3.17
2023-02-13T23:38:49.332Z,3.27
2023-02-13T23:41:51.791Z,3.35
2023-02-13T23:44:54.649Z,3.39
2023-02-13T23:47:57.148Z,3.62
2023-02-13T23:51:00.143Z,3.97
2023-02-13T23:54:03.139Z,4.13
2023-02-13T23:57:05.515Z,4.30
